Biggersville, Mississippi
Current Conditions -  °F | °C
As of 2:15 PM on Sunday 23 Nov 2014 (Local Time) from KCRX Reporting Station
Broken Clouds Broken Clouds  
Wind Chill: 64°   Ceiling: 3900
Heat Index: 64°   Visibility: 10mi
Dew Point: 61°   Wind: 10mph
Humidity: 88%   Direction: 150°SSE
Pressure: 29.38"   Gusts: NA
Location:  34.9238°N, 88.6234°W
Report Text: KCRX 232015Z AUTO 15009KT 10SM SCT014 SCT023 BKN039 18/16 A2938 RMK AO2
Loading
Personal Weather Stations






























Interactive Weather Map New forecast layout! Learn more

10-Day Weather Forecast

Advertisements
Track Severe Weather on mobile